createdAt,value
2018-09-20T00:00:26.999Z,73.95
2018-09-20T00:01:27.122Z,73.58
2018-09-20T00:02:27.030Z,73.65
2018-09-20T00:03:26.959Z,73.78
2018-09-20T00:04:26.944Z,74.38
2018-09-20T00:05:26.941Z,73.78
2018-09-20T00:06:26.920Z,74.18
2018-09-20T00:07:26.951Z,73.78
2018-09-20T00:08:26.896Z,74.08
2018-09-20T00:09:26.878Z,73.88
2018-09-20T00:10:26.867Z,73.98
2018-09-20T00:11:26.905Z,73.68
2018-09-20T00:12:26.859Z,73.78
2018-09-20T00:13:26.897Z,73.58
2018-09-20T00:14:26.842Z,73.28
2018-09-20T00:15:26.830Z,73.35
2018-09-20T00:16:26.817Z,72.88
2018-09-20T00:17:26.834Z,73.04
2018-09-20T00:18:26.779Z,72.24
2018-09-20T00:19:26.800Z,72.44
2018-09-20T00:20:26.757Z,72.44
2018-09-20T00:21:26.759Z,71.94
2018-09-20T00:22:26.766Z,72.94
2018-09-20T00:23:26.731Z,73.04
2018-09-20T00:24:26.722Z,73.04
2018-09-20T00:25:26.741Z,73.14
2018-09-20T00:26:26.705Z,73.38
2018-09-20T00:27:26.680Z,73.78
2018-09-20T00:28:26.678Z,73.14
2018-09-20T00:29:26.660Z,73.58
2018-09-20T00:30:26.656Z,73.78
2018-09-20T00:31:26.712Z,73.38
2018-09-20T00:32:26.633Z,73.28
2018-09-20T00:33:26.610Z,73.58
2018-09-20T00:34:26.615Z,73.38
2018-09-20T00:35:26.590Z,73.88
2018-09-20T00:36:26.602Z,73.48
2018-09-20T00:37:26.613Z,73.48
2018-09-20T00:38:26.558Z,73.58
2018-09-20T00:39:26.544Z,73.08
2018-09-20T00:40:26.552Z,72.17
2018-09-20T00:41:26.555Z,72.14
2018-09-20T00:42:26.521Z,72.24
2018-09-20T00:43:26.550Z,72.77
2018-09-20T00:44:26.488Z,72.88
2018-09-20T00:45:26.483Z,73.04
2018-09-20T00:46:26.482Z,72.34
2018-09-20T00:47:26.454Z,72.14
2018-09-20T00:48:26.459Z,72.24
2018-09-20T00:49:26.458Z,72.64
2018-09-20T00:50:26.440Z,72.24
2018-09-20T00:51:26.426Z,72.54
2018-09-20T00:52:26.396Z,72.44
2018-09-20T00:53:26.400Z,72.74
2018-09-20T00:54:26.387Z,72.47
2018-09-20T00:55:26.405Z,72.97
2018-09-20T00:56:26.408Z,72.54
2018-09-20T00:57:26.358Z,72.44
2018-09-20T00:58:26.353Z,72.37
2018-09-20T00:59:26.325Z,72.24
2018-09-20T01:00:26.343Z,73.78
2018-09-20T01:01:26.333Z,73.48
2018-09-20T01:02:26.318Z,73.68
2018-09-20T01:03:26.272Z,73.78
2018-09-20T01:04:26.261Z,74.12
2018-09-20T01:05:26.257Z,74.42
2018-09-20T01:06:26.244Z,74.18
2018-09-20T01:07:26.282Z,74.32
2018-09-20T01:08:26.218Z,74.02
2018-09-20T01:09:26.207Z,74.73
2018-09-20T01:10:26.207Z,74.02
2018-09-20T01:11:26.181Z,74.73
2018-09-20T01:12:26.186Z,74.66
2018-09-20T01:13:26.177Z,74.46
2018-09-20T01:14:26.160Z,74.76
2018-09-20T01:15:26.152Z,75.10
2018-09-20T01:16:26.128Z,75.30
2018-09-20T01:17:26.132Z,75.16
2018-09-20T01:18:26.104Z,75.50
2018-09-20T01:19:26.148Z,75.06
2018-09-20T01:20:26.081Z,75.26
2018-09-20T01:21:26.070Z,75.20
2018-09-20T01:22:26.099Z,75.06
2018-09-20T01:23:26.046Z,75.76
2018-09-20T01:24:26.045Z,75.40
2018-09-20T01:25:26.069Z,76.10
2018-09-20T01:26:26.026Z,75.90
2018-09-20T01:27:26.041Z,76.20
2018-09-20T01:28:25.992Z,75.50
2018-09-20T01:29:25.982Z,75.60
2018-09-20T01:30:25.983Z,76.34
2018-09-20T01:31:26.017Z,77.45
2018-09-20T01:32:25.963Z,77.86
2018-09-20T01:33:25.948Z,78.39
2018-09-20T01:34:25.931Z,78.50
2018-09-20T01:35:25.947Z,79.24
2018-09-20T01:36:25.962Z,79.74
2018-09-20T01:37:25.962Z,80.69
2018-09-20T01:38:25.909Z,81.70
2018-09-20T01:39:25.870Z,82.35
2018-09-20T01:40:25.861Z,81.98
2018-09-20T01:41:25.882Z,83.84
2018-09-20T01:42:25.850Z,84.08
2018-09-20T01:43:25.871Z,83.58
2018-09-20T01:44:25.822Z,85.19
2018-09-20T01:45:25.802Z,85.54
2018-09-20T01:46:25.791Z,86.35
2018-09-20T01:47:25.797Z,86.55
2018-09-20T01:48:25.768Z,86.55
2018-09-20T01:49:25.799Z,86.39
2018-09-20T01:50:25.749Z,86.39
2018-09-20T01:51:25.754Z,88.11
2018-09-20T01:52:25.767Z,88.11
2018-09-20T01:53:25.724Z,87.60
2018-09-20T01:54:25.711Z,86.59
2018-09-20T01:55:25.743Z,87.91
2018-09-20T01:56:25.689Z,87.95
2018-09-20T01:57:25.684Z,87.74
2018-09-20T01:58:25.701Z,88.56
2018-09-20T01:59:25.652Z,88.86
2018-09-20T02:00:25.649Z,89.31
2018-09-20T02:01:25.668Z,89.51
2018-09-20T02:02:25.621Z,89.21
2018-09-20T02:03:25.624Z,89.51
2018-09-20T02:04:25.608Z,88.90
2018-09-20T02:05:25.595Z,89.92
2018-09-20T02:06:25.574Z,90.53
2018-09-20T02:07:25.592Z,89.81
2018-09-20T02:08:25.569Z,88.70
2018-09-20T02:09:25.541Z,88.15
2018-09-20T02:10:25.548Z,88.96
2018-09-20T02:11:25.547Z,87.00
2018-09-20T02:12:25.511Z,87.00
2018-09-20T02:13:25.559Z,86.65
2018-09-20T02:14:25.489Z,85.90
2018-09-20T02:15:25.475Z,83.94
2018-09-20T02:16:25.469Z,83.40
2018-09-20T02:17:25.493Z,81.94
2018-09-20T02:18:25.465Z,81.74
2018-09-20T02:19:25.503Z,81.20
2018-09-20T02:20:25.427Z,80.90
2018-09-20T02:21:25.427Z,81.10
2018-09-20T02:22:25.404Z,79.99
2018-09-20T02:23:25.426Z,80.39
2018-09-20T02:24:25.442Z,80.35
2018-09-20T02:25:25.406Z,80.25
2018-09-20T02:26:25.362Z,80.65
2018-09-20T02:27:25.352Z,80.65
2018-09-20T02:28:25.348Z,79.94
2018-09-20T02:29:25.326Z,80.05
2018-09-20T02:30:25.328Z,80.35
2018-09-20T02:31:25.339Z,80.65
2018-09-20T02:32:25.291Z,81.10
2018-09-20T02:33:25.294Z,80.79
2018-09-20T02:34:25.270Z,81.50
2018-09-20T02:35:25.259Z,81.84
2018-09-20T02:36:25.249Z,81.64
2018-09-20T02:37:25.275Z,82.39
2018-09-20T02:38:25.243Z,81.74
2018-09-20T02:39:25.216Z,81.44
2018-09-20T02:40:25.260Z,79.99
2018-09-20T02:41:25.206Z,79.99
2018-09-20T02:42:25.181Z,80.15
2018-09-20T02:43:25.193Z,80.15
2018-09-20T02:44:25.185Z,80.25
2018-09-20T02:45:25.170Z,80.29
2018-09-20T02:46:25.162Z,80.29
2018-09-20T02:47:25.131Z,80.99
2018-09-20T02:48:25.127Z,81.60
2018-09-20T02:49:25.168Z,81.74
2018-09-20T02:50:25.109Z,81.84
2018-09-20T02:51:25.094Z,81.98
2018-09-20T02:52:25.083Z,83.90
2018-09-20T02:53:25.064Z,83.54
2018-09-20T02:54:25.070Z,83.60
2018-09-20T02:55:25.105Z,83.50
2018-09-20T02:56:25.085Z,83.19
2018-09-20T02:57:25.040Z,84.14
2018-09-20T02:58:25.013Z,84.79
2018-09-20T02:59:25.032Z,84.89
2018-09-20T03:00:24.994Z,85.19
2018-09-20T03:01:25.021Z,85.94
2018-09-20T03:02:24.985Z,86.25
2018-09-20T03:03:24.959Z,85.44
2018-09-20T03:04:24.961Z,86.69
2018-09-20T03:05:24.931Z,86.29
2018-09-20T03:06:24.922Z,84.89
2018-09-20T03:07:24.976Z,84.48
2018-09-20T03:08:24.898Z,83.33
2018-09-20T03:09:24.902Z,82.59
2018-09-20T03:10:24.877Z,82.18
2018-09-20T03:11:24.863Z,81.84
2018-09-20T03:12:24.948Z,80.93
2018-09-20T03:13:24.871Z,81.30
2018-09-20T03:14:24.879Z,80.19
2018-09-20T03:15:24.827Z,80.76
2018-09-20T03:16:24.838Z,79.85
2018-09-20T03:17:24.812Z,79.74
2018-09-20T03:18:24.803Z,80.15
2018-09-20T03:19:24.846Z,80.45
2018-09-20T03:20:24.776Z,79.64
2018-09-20T03:21:24.753Z,79.24
2018-09-20T03:22:24.758Z,79.34
2018-09-20T03:23:24.742Z,79.85
2018-09-20T03:24:24.762Z,79.24
2018-09-20T03:25:24.759Z,78.90
2018-09-20T03:26:24.699Z,79.10
2018-09-20T03:27:24.702Z,78.94
2018-09-20T03:28:24.696Z,79.04
2018-09-20T03:29:24.681Z,79.21
2018-09-20T03:30:24.721Z,79.04
2018-09-20T03:31:24.681Z,78.53
2018-09-20T03:32:24.644Z,79.00
2018-09-20T03:33:24.632Z,78.70
2018-09-20T03:34:24.641Z,78.70
2018-09-20T03:35:24.612Z,78.80
2018-09-20T03:36:24.589Z,78.70
2018-09-20T03:37:24.636Z,78.63
2018-09-20T03:38:24.597Z,78.70
2018-09-20T03:39:24.573Z,78.70
2018-09-20T03:40:24.551Z,78.59
2018-09-20T03:41:24.552Z,78.39
2018-09-20T03:42:24.524Z,78.19
2018-09-20T03:43:24.544Z,78.39
2018-09-20T03:44:24.525Z,78.19
2018-09-20T03:45:24.491Z,78.19
2018-09-20T03:46:24.481Z,78.39
2018-09-20T03:47:24.473Z,78.39
2018-09-20T03:48:24.470Z,78.59
2018-09-20T03:49:24.478Z,78.90
2018-09-20T03:50:24.461Z,79.34
2018-09-20T03:51:24.432Z,79.24
2018-09-20T03:52:24.418Z,79.34
2018-09-20T03:53:24.421Z,79.94
2018-09-20T03:54:24.442Z,80.15
2018-09-20T03:55:24.427Z,79.74
2018-09-20T03:56:24.374Z,79.44
2018-09-20T03:57:24.374Z,79.34
2018-09-20T03:58:24.352Z,79.24
2018-09-20T03:59:24.343Z,79.04
2018-09-20T04:00:24.346Z,79.44
2018-09-20T04:01:24.349Z,79.14
2018-09-20T04:02:24.310Z,79.24
2018-09-20T04:03:24.300Z,79.64
2018-09-20T04:04:24.288Z,79.24
2018-09-20T04:05:24.292Z,79.74
2018-09-20T04:06:24.269Z,80.05
2018-09-20T04:07:24.287Z,79.64
2018-09-20T04:08:24.248Z,79.14
2018-09-20T04:09:24.234Z,79.74
2018-09-20T04:10:24.236Z,79.54
2018-09-20T04:11:24.214Z,80.15
2018-09-20T04:12:24.211Z,79.79
2018-09-20T04:13:24.217Z,80.99
2018-09-20T04:14:24.181Z,80.43
2018-09-20T04:15:24.185Z,81.74
2018-09-20T04:16:24.157Z,82.04
2018-09-20T04:17:24.148Z,82.08
2018-09-20T04:18:24.140Z,81.92
2018-09-20T04:19:24.145Z,82.62
2018-09-20T04:20:24.130Z,83.33
2018-09-20T04:21:24.107Z,83.47
2018-09-20T04:22:24.095Z,84.69
2018-09-20T04:23:24.086Z,84.83
2018-09-20T04:24:24.075Z,86.05
2018-09-20T04:25:24.093Z,85.78
2018-09-20T04:26:24.057Z,85.17
2018-09-20T04:27:24.045Z,86.49
2018-09-20T04:28:24.028Z,87.04
2018-09-20T04:29:24.020Z,86.83
2018-09-20T04:30:24.030Z,87.85
2018-09-20T04:31:24.010Z,87.99
2018-09-20T04:32:23.985Z,88.40
2018-09-20T04:33:23.996Z,88.64
2018-09-20T04:34:23.967Z,88.95
2018-09-20T04:35:23.979Z,89.29
2018-09-20T04:36:23.939Z,90.11
2018-09-20T04:37:23.940Z,90.51
2018-09-20T04:38:23.924Z,91.08
2018-09-20T04:39:23.908Z,90.41
2018-09-20T04:40:23.895Z,91.02
2018-09-20T04:41:23.899Z,91.02
2018-09-20T04:42:23.873Z,90.41
2018-09-20T04:43:23.887Z,91.93
2018-09-20T04:44:23.853Z,91.22
2018-09-20T04:45:23.841Z,91.83
2018-09-20T04:46:23.842Z,91.17
2018-09-20T04:47:23.817Z,90.47
2018-09-20T04:48:23.806Z,89.04
2018-09-20T04:49:23.811Z,90.53
2018-09-20T04:50:23.785Z,89.61
2018-09-20T04:51:23.788Z,88.56
2018-09-20T04:52:23.764Z,88.11
2018-09-20T04:53:23.827Z,86.65
2018-09-20T04:54:23.749Z,85.60
2018-09-20T04:55:23.731Z,84.95
2018-09-20T04:56:23.746Z,83.09
2018-09-20T04:57:23.710Z,82.04
2018-09-20T04:58:23.701Z,82.10
2018-09-20T04:59:23.687Z,81.74
2018-09-20T05:00:23.678Z,81.10
2018-09-20T05:01:23.677Z,81.30
2018-09-20T05:02:23.678Z,81.40
2018-09-20T05:03:23.650Z,81.70
2018-09-20T05:04:23.640Z,82.10
2018-09-20T05:05:23.628Z,82.45
2018-09-20T05:06:23.624Z,82.65
2018-09-20T05:07:23.595Z,83.36
2018-09-20T05:08:23.605Z,83.19
2018-09-20T05:09:23.637Z,83.44
2018-09-20T05:10:23.568Z,83.44
2018-09-20T05:11:23.564Z,84.08
2018-09-20T05:12:23.543Z,84.79
2018-09-20T05:13:23.531Z,85.84
2018-09-20T05:14:23.525Z,86.59
2018-09-20T05:15:23.529Z,87.20
2018-09-20T05:16:23.512Z,87.65
2018-09-20T05:17:23.486Z,88.40
2018-09-20T05:18:23.477Z,88.70
2018-09-20T05:19:23.465Z,88.90
2018-09-20T05:20:23.505Z,89.76
2018-09-20T05:21:23.477Z,90.16
2018-09-20T05:22:23.431Z,90.88
2018-09-20T05:23:23.440Z,89.61
2018-09-20T05:24:23.411Z,89.67
2018-09-20T05:25:23.400Z,87.91
2018-09-20T05:26:23.398Z,87.30
2018-09-20T05:27:23.393Z,86.76
2018-09-20T05:28:23.363Z,84.99
2018-09-20T05:29:23.350Z,83.84
2018-09-20T05:30:23.342Z,83.19
2018-09-20T05:31:23.358Z,82.55
2018-09-20T05:32:23.320Z,81.94
2018-09-20T05:33:23.346Z,82.04
2018-09-20T05:34:23.298Z,82.14
2018-09-20T05:35:23.300Z,81.60
2018-09-20T05:36:23.275Z,81.50
2018-09-20T05:37:23.282Z,82.01
2018-09-20T05:38:23.254Z,81.90
2018-09-20T05:39:23.272Z,81.20
2018-09-20T05:40:23.230Z,81.80
2018-09-20T05:41:23.260Z,81.30
2018-09-20T05:42:23.229Z,81.60
2018-09-20T05:43:23.224Z,81.70
2018-09-20T05:44:23.185Z,81.70
2018-09-20T05:45:23.203Z,81.90
2018-09-20T05:46:23.163Z,82.01
2018-09-20T05:47:23.165Z,81.60
2018-09-20T05:48:23.155Z,82.55
2018-09-20T05:49:23.132Z,82.65
2018-09-20T05:50:23.118Z,83.05
2018-09-20T05:51:23.137Z,83.19
2018-09-20T05:52:23.110Z,83.29
2018-09-20T05:53:23.089Z,83.50
2018-09-20T05:54:23.078Z,84.31
2018-09-20T05:55:23.067Z,84.14
2018-09-20T05:56:23.052Z,84.85
2018-09-20T05:57:23.060Z,84.95
2018-09-20T05:58:23.046Z,84.55
2018-09-20T05:59:23.093Z,85.05
2018-09-20T06:00:23.008Z,85.16
2018-09-20T06:01:22.998Z,85.86
2018-09-20T06:02:23.000Z,85.76
2018-09-20T06:03:22.974Z,86.67
2018-09-20T06:04:22.976Z,85.66
2018-09-20T06:05:22.974Z,85.96
2018-09-20T06:06:22.943Z,85.42
2018-09-20T06:07:22.957Z,84.91
2018-09-20T06:08:22.919Z,84.37
2018-09-20T06:09:22.910Z,83.36
2018-09-20T06:10:22.898Z,83.22
2018-09-20T06:11:22.908Z,83.07
2018-09-20T06:12:22.875Z,82.67
2018-09-20T06:13:22.983Z,82.37
2018-09-20T06:14:22.853Z,81.87
2018-09-20T06:15:22.844Z,81.73
2018-09-20T06:16:22.833Z,81.59
2018-09-20T06:17:22.848Z,81.79
2018-09-20T06:18:22.825Z,80.68
2018-09-20T06:19:22.799Z,80.04
2018-09-20T06:20:22.787Z,80.13
2018-09-20T06:21:22.776Z,79.60
2018-09-20T06:22:22.770Z,79.02
2018-09-20T06:23:22.776Z,78.47
2018-09-20T06:24:22.749Z,76.79
2018-09-20T06:25:22.733Z,73.84
2018-09-20T06:26:22.723Z,75.18
2018-09-20T06:27:22.713Z,73.44
2018-09-20T06:28:22.715Z,72.80
2018-09-20T06:29:22.702Z,73.00
2018-09-20T06:30:22.683Z,70.19
2018-09-20T06:31:22.671Z,70.83
2018-09-20T06:32:22.660Z,70.39
2018-09-20T06:33:22.678Z,68.36
2018-09-20T06:34:22.632Z,69.32
2018-09-20T06:35:22.638Z,68.19
2018-09-20T06:36:22.611Z,65.49
2018-09-20T06:37:22.604Z,66.46
2018-09-20T06:38:22.608Z,64.50
2018-09-20T06:39:22.577Z,63.60
2018-09-20T06:40:22.565Z,66.27
2018-09-20T06:41:22.564Z,63.14
2018-09-20T06:42:22.582Z,61.88
2018-09-20T06:43:22.563Z,60.86
2018-09-20T06:44:22.522Z,59.94
2018-09-20T06:45:22.519Z,59.96
2018-09-20T06:46:22.508Z,60.06
2018-09-20T06:47:22.523Z,59.44
2018-09-20T06:48:22.507Z,59.23
2018-09-20T06:49:22.493Z,60.13
2018-09-20T06:50:22.514Z,60.03
2018-09-20T06:51:22.450Z,59.14
2018-09-20T06:52:22.473Z,59.17
2018-09-20T06:53:22.453Z,58.87
2018-09-20T06:54:22.413Z,58.81
2018-09-20T06:55:22.415Z,57.69
2018-09-20T06:56:22.400Z,57.15
2018-09-20T06:57:22.381Z,58.31
2018-09-20T06:58:22.383Z,56.79
2018-09-20T06:59:22.363Z,57.79
2018-09-20T07:00:22.368Z,57.09
2018-09-20T07:01:22.342Z,57.34
2018-09-20T07:02:22.331Z,56.04
2018-09-20T07:03:22.420Z,56.44
2018-09-20T07:04:22.302Z,55.97
2018-09-20T07:05:22.293Z,56.24
2018-09-20T07:06:22.279Z,56.49
2018-09-20T07:07:22.275Z,57.59
2018-09-20T07:08:22.274Z,57.19
2018-09-20T07:09:22.262Z,57.92
2018-09-20T07:10:22.237Z,57.62
2018-09-20T07:11:22.225Z,59.44
2018-09-20T07:12:22.224Z,58.51
2018-09-20T07:13:22.203Z,57.26
2018-09-20T07:14:22.230Z,57.36
2018-09-20T07:15:22.227Z,55.91
2018-09-20T07:16:22.172Z,56.21
2018-09-20T07:17:22.162Z,56.24
2018-09-20T07:18:22.159Z,57.56
2018-09-20T07:19:22.154Z,57.14
2018-09-20T07:20:22.152Z,56.54
2018-09-20T07:21:22.127Z,57.14
2018-09-20T07:22:22.108Z,55.85
2018-09-20T07:23:22.100Z,57.04
2018-09-20T07:24:22.100Z,56.54
2018-09-20T07:25:22.188Z,55.79
2018-09-20T07:26:22.072Z,54.97
2018-09-20T07:27:22.061Z,54.94
2018-09-20T07:28:22.055Z,53.92
2018-09-20T07:29:22.054Z,54.20
2018-09-20T07:30:22.037Z,53.50
2018-09-20T07:31:22.007Z,53.63
2018-09-20T07:32:21.997Z,53.36
2018-09-20T07:33:21.990Z,53.48
2018-09-20T07:34:21.988Z,53.96
2018-09-20T07:35:21.963Z,53.11
2018-09-20T07:36:21.974Z,53.70
2018-09-20T07:37:21.956Z,52.78
2018-09-20T07:38:21.930Z,53.38
2018-09-20T07:39:21.933Z,52.12
2018-09-20T07:40:21.909Z,52.41
2018-09-20T07:41:21.899Z,52.98
2018-09-20T07:42:21.887Z,53.38
2018-09-20T07:43:21.899Z,54.89
2018-09-20T07:44:21.888Z,52.71
2018-09-20T07:45:21.863Z,52.81
2018-09-20T07:46:21.851Z,52.69
2018-09-20T07:47:21.878Z,51.65
2018-09-20T07:48:21.825Z,53.08
2018-09-20T07:49:21.841Z,49.42
2018-09-20T07:50:21.818Z,50.88
2018-09-20T07:51:21.810Z,51.62
2018-09-20T07:52:21.789Z,50.41
2018-09-20T07:53:21.769Z,50.78
2018-09-20T07:54:21.781Z,47.75
2018-09-20T07:55:21.749Z,48.34
2018-09-20T07:56:21.752Z,49.84
2018-09-20T07:57:21.785Z,49.65
2018-09-20T07:58:21.737Z,49.45
2018-09-20T07:59:21.741Z,48.83
2018-09-20T08:00:21.709Z,47.97
2018-09-20T08:01:21.691Z,48.49
2018-09-20T08:02:21.679Z,49.64
2018-09-20T08:03:21.667Z,49.13
2018-09-20T08:04:21.675Z,50.66
2018-09-20T08:05:21.639Z,49.49
2018-09-20T08:06:21.628Z,51.10
2018-09-20T08:07:21.662Z,50.61
2018-09-20T08:08:21.624Z,50.41
2018-09-20T08:09:21.609Z,51.05
2018-09-20T08:10:21.586Z,50.38
2018-09-20T08:11:21.583Z,52.14
2018-09-20T08:12:21.603Z,50.16
2018-09-20T08:13:21.588Z,52.04
2018-09-20T08:14:21.564Z,49.48
2018-09-20T08:15:21.536Z,49.94
2018-09-20T08:16:21.527Z,49.90
2018-09-20T08:17:21.510Z,49.69
2018-09-20T08:18:21.512Z,47.01
2018-09-20T08:19:21.527Z,47.80
2018-09-20T08:20:21.477Z,48.37
2018-09-20T08:21:21.517Z,48.98
2018-09-20T08:22:21.462Z,50.19
2018-09-20T08:23:21.447Z,48.71
2018-09-20T08:24:21.435Z,49.60
2018-09-20T08:25:21.448Z,48.81
2018-09-20T08:26:21.426Z,49.08
2018-09-20T08:27:21.410Z,47.25
2018-09-20T08:28:21.391Z,49.79
2018-09-20T08:29:21.393Z,48.12
2018-09-20T08:30:21.386Z,46.74
2018-09-20T08:31:21.358Z,46.72
2018-09-20T08:32:21.365Z,46.50
2018-09-20T08:33:21.357Z,46.54
2018-09-20T08:34:21.342Z,47.99
2018-09-20T08:35:21.334Z,47.97
2018-09-20T08:36:21.353Z,49.50
2018-09-20T08:37:21.312Z,49.97
2018-09-20T08:38:21.281Z,46.35
2018-09-20T08:39:21.316Z,45.45
2018-09-20T08:40:21.285Z,44.93
2018-09-20T08:41:21.255Z,45.03
2018-09-20T08:42:21.284Z,45.42
2018-09-20T08:43:21.238Z,45.03
2018-09-20T08:44:21.218Z,45.89
2018-09-20T08:45:21.227Z,43.02
2018-09-20T08:46:21.211Z,44.59
2018-09-20T08:47:21.209Z,46.12
2018-09-20T08:48:21.183Z,42.86
2018-09-20T08:49:21.171Z,43.13
2018-09-20T08:50:21.186Z,42.94
2018-09-20T08:51:21.142Z,41.88
2018-09-20T08:52:21.133Z,45.41
2018-09-20T08:53:21.153Z,44.38
2018-09-20T08:54:21.110Z,43.90
2018-09-20T08:55:21.131Z,41.78
2018-09-20T08:56:21.093Z,42.04
2018-09-20T08:57:21.143Z,45.70
2018-09-20T08:58:21.088Z,45.17
2018-09-20T08:59:21.059Z,47.92
2018-09-20T09:00:21.064Z,48.30
2018-09-20T09:01:21.044Z,45.84
2018-09-20T09:02:21.033Z,47.78
2018-09-20T09:03:21.020Z,48.84
2018-09-20T09:04:21.015Z,48.03
2018-09-20T09:05:21.010Z,44.69
2018-09-20T09:06:21.004Z,44.69
2018-09-20T09:07:21.000Z,44.37
2018-09-20T09:08:20.965Z,44.37
2018-09-20T09:09:20.960Z,44.52
2018-09-20T09:10:20.996Z,45.52
2018-09-20T09:11:20.932Z,47.07
2018-09-20T09:12:20.941Z,47.96
2018-09-20T09:13:20.943Z,45.30
2018-09-20T09:14:20.904Z,48.45
2018-09-20T09:15:20.902Z,48.35
2018-09-20T09:16:20.890Z,46.17
2018-09-20T09:17:20.872Z,44.89
2018-09-20T09:18:20.884Z,47.36
2018-09-20T09:19:20.851Z,44.79
2018-09-20T09:20:20.856Z,46.06
2018-09-20T09:21:20.826Z,47.71
2018-09-20T09:22:20.819Z,46.31
2018-09-20T09:23:20.848Z,45.80
2018-09-20T09:24:20.813Z,44.04
2018-09-20T09:25:20.811Z,46.20
2018-09-20T09:26:20.777Z,44.74
2018-09-20T09:27:20.762Z,48.18
2018-09-20T09:28:20.767Z,47.96
2018-09-20T09:29:20.739Z,43.99
2018-09-20T09:30:20.736Z,47.59
2018-09-20T09:31:20.744Z,45.51
2018-09-20T09:32:20.736Z,46.81
2018-09-20T09:33:20.706Z,48.11
2018-09-20T09:34:20.779Z,47.07
2018-09-20T09:35:20.690Z,47.07
2018-09-20T09:36:20.700Z,47.29
2018-09-20T09:37:20.670Z,48.45
2018-09-20T09:38:20.674Z,45.95
2018-09-20T09:39:20.657Z,46.22
2018-09-20T09:40:20.647Z,44.84
2018-09-20T09:41:20.643Z,47.89
2018-09-20T09:42:20.641Z,47.71
2018-09-20T09:43:20.620Z,45.45
2018-09-20T09:44:20.608Z,47.30
2018-09-20T09:45:20.589Z,46.08
2018-09-20T09:46:20.603Z,45.68
2018-09-20T09:47:20.575Z,45.39
2018-09-20T09:48:20.566Z,45.37
2018-09-20T09:49:20.550Z,45.62
2018-09-20T09:50:20.538Z,45.73
2018-09-20T09:51:20.531Z,44.41
2018-09-20T09:52:20.513Z,49.82
2018-09-20T09:53:20.517Z,44.60
2018-09-20T09:54:20.518Z,45.39
2018-09-20T09:55:20.478Z,44.90
2018-09-20T09:56:20.487Z,45.14
2018-09-20T09:57:20.463Z,45.73
2018-09-20T09:58:20.443Z,45.45
2018-09-20T09:59:20.445Z,46.22
2018-09-20T10:00:20.425Z,46.59
2018-09-20T10:01:20.443Z,47.00
2018-09-20T10:02:20.421Z,45.65
2018-09-20T10:03:20.400Z,46.31
2018-09-20T10:04:20.397Z,48.86
2018-09-20T10:05:20.373Z,45.83
2018-09-20T10:06:20.399Z,45.88
2018-09-20T10:07:20.429Z,46.03
2018-09-20T10:08:20.353Z,45.34
2018-09-20T10:09:20.334Z,43.48
2018-09-20T10:10:20.323Z,45.05
2018-09-20T10:11:20.336Z,45.12
2018-09-20T10:12:20.306Z,44.92
2018-09-20T10:13:20.321Z,46.95
2018-09-20T10:14:20.284Z,48.27
2018-09-20T10:15:20.289Z,50.21
2018-09-20T10:16:20.311Z,46.46
2018-09-20T10:17:20.257Z,44.79
2018-09-20T10:18:20.247Z,48.79
2018-09-20T10:19:20.239Z,45.99
2018-09-20T10:20:20.237Z,47.81
2018-09-20T10:21:20.242Z,44.73
2018-09-20T10:22:20.222Z,44.04
2018-09-20T10:23:20.198Z,46.88
2018-09-20T10:24:20.186Z,45.29
2018-09-20T10:25:20.176Z,44.07
2018-09-20T10:26:20.172Z,44.71
2018-09-20T10:27:20.167Z,44.10
2018-09-20T10:28:20.151Z,43.44
2018-09-20T10:29:20.132Z,47.28
2018-09-20T10:30:20.121Z,44.81
2018-09-20T10:31:20.167Z,45.57
2018-09-20T10:32:20.114Z,42.85
2018-09-20T10:33:20.110Z,42.29
2018-09-20T10:34:20.087Z,41.94
2018-09-20T10:35:20.071Z,42.65
2018-09-20T10:36:20.059Z,44.38
2018-09-20T10:37:20.091Z,45.66
2018-09-20T10:38:20.039Z,45.52
2018-09-20T10:39:20.042Z,42.38
2018-09-20T10:40:20.037Z,44.42
2018-09-20T10:41:20.014Z,42.13
2018-09-20T10:42:20.028Z,42.19
2018-09-20T10:43:20.001Z,43.13
2018-09-20T10:44:19.993Z,41.09
2018-09-20T10:45:19.979Z,45.81
2018-09-20T10:46:19.964Z,42.48
2018-09-20T10:47:20.036Z,42.47
2018-09-20T10:48:19.946Z,43.61
2018-09-20T10:49:19.943Z,43.05
2018-09-20T10:50:19.932Z,48.92
2018-09-20T10:51:19.923Z,42.25
2018-09-20T10:52:19.923Z,43.02
2018-09-20T10:53:19.898Z,45.44
2018-09-20T10:54:19.882Z,42.09
2018-09-20T10:55:19.879Z,41.99
2018-09-20T10:56:19.879Z,44.83
2018-09-20T10:57:19.875Z,41.13
2018-09-20T10:58:19.880Z,44.46
2018-09-20T10:59:19.834Z,42.38
2018-09-20T11:00:19.829Z,41.82
2018-09-20T11:01:19.833Z,44.66
2018-09-20T11:02:19.820Z,42.09
2018-09-20T11:03:19.849Z,44.20
2018-09-20T11:04:19.811Z,43.67
2018-09-20T11:05:19.775Z,38.96
2018-09-20T11:06:19.776Z,41.33
2018-09-20T11:07:19.776Z,41.13
2018-09-20T11:08:19.742Z,39.96
2018-09-20T11:09:19.747Z,39.55
2018-09-20T11:10:19.735Z,42.09
2018-09-20T11:11:19.722Z,40.14
2018-09-20T11:12:19.725Z,40.25
2018-09-20T11:13:19.694Z,39.70
2018-09-20T11:14:19.695Z,42.93
2018-09-20T11:15:19.671Z,41.93
2018-09-20T11:16:19.666Z,40.47
2018-09-20T11:17:19.688Z,41.96
2018-09-20T11:18:19.652Z,40.41
2018-09-20T11:19:19.633Z,41.97
2018-09-20T11:20:19.636Z,43.05
2018-09-20T11:21:19.626Z,39.35
2018-09-20T11:22:19.602Z,42.27
2018-09-20T11:23:19.609Z,41.25
2018-09-20T11:24:19.585Z,39.92
2018-09-20T11:25:19.589Z,42.07
2018-09-20T11:26:19.573Z,40.70
2018-09-20T11:27:19.559Z,41.58
2018-09-20T11:28:19.567Z,40.23
2018-09-20T11:29:19.539Z,43.98
2018-09-20T11:30:19.541Z,45.32
2018-09-20T11:31:19.521Z,40.92
2018-09-20T11:32:19.560Z,42.41
2018-09-20T11:33:19.509Z,41.64
2018-09-20T11:34:19.561Z,44.31
2018-09-20T11:35:19.474Z,42.65
2018-09-20T11:36:19.491Z,42.72
2018-09-20T11:37:19.487Z,40.74
2018-09-20T11:38:19.461Z,40.35
2018-09-20T11:39:19.462Z,41.56
2018-09-20T11:40:19.454Z,44.23
2018-09-20T11:41:19.420Z,45.83
2018-09-20T11:42:19.413Z,44.74
2018-09-20T11:43:19.431Z,45.14
2018-09-20T11:44:19.388Z,45.83
2018-09-20T11:45:19.374Z,43.08
2018-09-20T11:46:19.379Z,44.55
2018-09-20T11:47:19.357Z,44.82
2018-09-20T11:48:19.381Z,43.18
2018-09-20T11:49:19.344Z,45.04
2018-09-20T11:50:19.335Z,45.65
2018-09-20T11:51:19.333Z,45.97
2018-09-20T11:52:19.304Z,47.09
2018-09-20T11:53:19.324Z,44.71
2018-09-20T11:54:19.382Z,45.18
2018-09-20T11:55:19.275Z,45.97
2018-09-20T11:56:19.267Z,47.05
2018-09-20T11:57:19.265Z,44.89
2018-09-20T11:58:19.269Z,45.85
2018-09-20T11:59:19.250Z,44.37
2018-09-20T12:00:19.239Z,47.03
2018-09-20T12:01:19.269Z,43.98
2018-09-20T12:02:19.204Z,42.53
2018-09-20T12:03:19.203Z,43.85
2018-09-20T12:04:19.186Z,47.69
2018-09-20T12:05:19.168Z,44.93
2018-09-20T12:06:19.172Z,46.90
2018-09-20T12:07:19.147Z,47.88
2018-09-20T12:08:19.151Z,45.92
2018-09-20T12:09:19.124Z,48.08
2018-09-20T12:10:19.112Z,48.47
2018-09-20T12:11:19.123Z,45.13
2018-09-20T12:12:19.095Z,45.92
2018-09-20T12:13:19.167Z,45.99
2018-09-20T12:14:19.101Z,46.90
2018-09-20T12:15:19.079Z,44.73
2018-09-20T12:16:19.070Z,44.56
2018-09-20T12:17:19.040Z,44.68
2018-09-20T12:18:19.051Z,45.39
2018-09-20T12:19:19.088Z,45.59
2018-09-20T12:20:19.011Z,48.44
2018-09-20T12:21:19.001Z,48.42
2018-09-20T12:22:18.994Z,47.14
2018-09-20T12:23:18.983Z,47.06
2018-09-20T12:24:18.977Z,48.74
2018-09-20T12:25:18.970Z,49.33
2018-09-20T12:26:18.950Z,49.90
2018-09-20T12:27:18.956Z,46.15
2018-09-20T12:28:18.926Z,47.53
2018-09-20T12:29:18.926Z,47.73
2018-09-20T12:30:18.904Z,47.56
2018-09-20T12:31:18.913Z,45.86
2018-09-20T12:32:18.940Z,48.22
2018-09-20T12:33:18.877Z,48.71
2018-09-20T12:34:18.891Z,48.32
2018-09-20T12:35:18.858Z,44.98
2018-09-20T12:36:18.851Z,47.36
2018-09-20T12:37:18.842Z,48.54
2018-09-20T12:38:18.839Z,49.43
2018-09-20T12:39:18.848Z,45.39
2018-09-20T12:40:18.803Z,44.43
2018-09-20T12:41:18.781Z,45.21
2018-09-20T12:42:18.776Z,46.79
2018-09-20T12:43:18.807Z,45.19
2018-09-20T12:44:18.772Z,46.40
2018-09-20T12:45:18.734Z,48.17
2018-09-20T12:46:18.746Z,48.00
2018-09-20T12:47:18.729Z,45.36
2018-09-20T12:48:18.741Z,48.22
2018-09-20T12:49:18.723Z,45.83
2018-09-20T12:50:18.706Z,44.84
2018-09-20T12:51:18.681Z,45.34
2018-09-20T12:52:18.688Z,47.31